Airfield :
LOGIN :

Register | Disclaimer

   EN    FR    IT 

 










Legend :    VFR   Marginal VFR   IFR   Intensive IFR   Very Intensive IFR
Visi :
Ceiling :
>= 8 km
>= 3000ft
5 to 8 km
1000 to 3000 ft
1500m to 5 km
500 to 1000 ft
800 to 1500m
200 to 500 ft
< 800m
< 200 ft
Symbols :   Thunderstorms  Fog  Heavy snow  Heavy precipitations  Wind > 20 kt
SIGMETs :     Misc.  Thunderstorms  Icing  Turbulence  Mountain Waves  Volcanic Ashes







- Airport Elevation : 15 ft
- IATA code : BHD
- Download approach charts


EGAC - George Best Belfast City

CURRENT METAR :
  • 240520Z AUTO 25006KT 9999 FEW034/// 01/00 Q1007

EXPIRED METARs :
  • 240450Z AUTO 26005KT 230V330 9999 NCD 02/01 Q1006
  • 240420Z AUTO VRB02KT 9999 FEW021/// 02/00 Q1006
  • 240350Z AUTO 18006KT 140V230 9999 SCT035/// 02/01 Q1006
  • 240320Z AUTO 22008KT 190V260 9999 NCD 02/00 Q1005
  • 240250Z AUTO 20006KT 140V250 9999 SCT015/// 02/01 Q1005

Expired Forecast.
ATIS : +44 02890 935 124
No reported NOTAMs for that airfield.



MET'MAP, your aeronautical weather chart ! - Copyright ORBIFLY December 2007 - Disclaimer

ORBIFLY MET'MAP TEAM :

Programming & Development : Alexandra Zaïnal
Concept & Development : Baudouin d'Aumeries
Co-Development & Prog : Marc-Olivier Méhu
Technical & hardware support : Manuel Goepfert

Contact : metmap@orbifly.com




SOURCES & CREDITS :

   NOAA